createdAt,value
2023-05-13T00:00:23.336Z,9.32
2023-05-13T00:01:24.888Z,9.34
2023-05-13T00:02:26.702Z,9.36
2023-05-13T00:03:28.458Z,9.41
2023-05-13T00:04:30.122Z,9.43
2023-05-13T00:05:31.828Z,9.45
2023-05-13T00:06:33.639Z,9.49
2023-05-13T00:07:35.286Z,9.54
2023-05-13T00:08:35.933Z,9.57
2023-05-13T00:09:38.744Z,9.62
2023-05-13T00:10:40.501Z,9.65
2023-05-13T00:11:42.199Z,9.74
2023-05-13T00:12:43.978Z,9.76
2023-05-13T00:13:45.675Z,9.8
2023-05-13T00:14:47.414Z,9.86
2023-05-13T00:15:49.168Z,9.91
2023-05-13T00:16:51.043Z,9.94
2023-05-13T00:17:52.686Z,9.99
2023-05-13T00:18:54.380Z,10.05
2023-05-13T00:19:56.075Z,10.08
2023-05-13T00:20:57.824Z,10.13
2023-05-13T00:21:59.581Z,10.18
2023-05-13T00:23:01.314Z,10.21
2023-05-13T00:24:03.028Z,10.25
2023-05-13T00:25:04.746Z,10.28
2023-05-13T00:26:06.477Z,10.32
2023-05-13T00:27:08.396Z,10.35
2023-05-13T00:28:09.976Z,10.37
2023-05-13T00:29:11.681Z,10.4
2023-05-13T00:30:13.470Z,10.42
2023-05-13T00:31:15.271Z,10.44
2023-05-13T00:32:17.162Z,10.46
2023-05-13T00:33:18.618Z,10.49
2023-05-13T00:34:20.372Z,10.51
2023-05-13T00:35:22.101Z,10.52
2023-05-13T00:36:23.835Z,10.53
2023-05-13T00:37:25.607Z,10.54
2023-05-13T00:38:27.300Z,10.54
2023-05-13T00:39:29.025Z,10.54
2023-05-13T00:40:30.773Z,10.54
2023-05-13T00:41:32.499Z,10.55
2023-05-13T00:42:34.224Z,10.55
2023-05-13T00:43:35.981Z,10.56
2023-05-13T00:44:37.768Z,10.56
2023-05-13T00:45:39.460Z,10.56
2023-05-13T00:46:41.183Z,10.57
2023-05-13T00:47:43.096Z,10.57
2023-05-13T00:48:44.665Z,10.58
2023-05-13T00:49:46.357Z,10.57
2023-05-13T00:50:48.102Z,10.57
2023-05-13T00:51:49.849Z,10.57
2023-05-13T00:52:51.639Z,10.57
2023-05-13T00:53:53.327Z,10.57
2023-05-13T00:54:55.033Z,10.57
2023-05-13T00:55:56.779Z,10.56
2023-05-13T00:56:58.518Z,10.56
2023-05-13T00:58:00.236Z,10.55
2023-05-13T00:59:01.984Z,10.54
2023-05-13T01:00:03.705Z,10.53
2023-05-13T01:01:05.502Z,10.52
2023-05-13T01:02:07.232Z,10.5
2023-05-13T01:03:09.103Z,10.49
2023-05-13T01:04:10.644Z,10.49
2023-05-13T01:05:12.374Z,10.48
2023-05-13T01:06:14.123Z,10.48
2023-05-13T01:07:15.891Z,10.48
2023-05-13T01:08:17.608Z,10.49
2023-05-13T01:09:19.327Z,10.5
2023-05-13T01:10:21.198Z,10.5
2023-05-13T01:11:22.795Z,10.51
2023-05-13T01:12:24.607Z,10.52
2023-05-13T01:13:26.292Z,10.52
2023-05-13T01:14:27.991Z,10.53
2023-05-13T01:15:29.744Z,10.53
2023-05-13T01:16:31.546Z,10.53
2023-05-13T01:17:33.265Z,10.54
2023-05-13T01:18:35.029Z,10.54
2023-05-13T01:19:36.675Z,10.56
2023-05-13T01:20:38.388Z,10.55
2023-05-13T01:21:40.139Z,10.56
2023-05-13T01:22:41.900Z,10.57
2023-05-13T01:23:43.623Z,10.58
2023-05-13T01:24:45.354Z,10.58
2023-05-13T01:25:47.066Z,10.59
2023-05-13T01:26:48.801Z,10.6
2023-05-13T01:27:50.556Z,10.62
2023-05-13T01:28:52.281Z,10.62
2023-05-13T01:29:54.015Z,10.63
2023-05-13T01:30:55.758Z,10.63
2023-05-13T01:31:57.469Z,10.63
2023-05-13T01:32:59.244Z,10.64
2023-05-13T01:34:00.946Z,10.64
2023-05-13T01:35:02.680Z,10.63
2023-05-13T01:36:04.420Z,10.63
2023-05-13T01:37:06.182Z,10.64
2023-05-13T01:38:07.873Z,10.63
2023-05-13T01:39:09.616Z,10.63
2023-05-13T01:40:17.499Z,10.63
2023-05-13T01:41:13.078Z,10.63
2023-05-13T01:42:14.851Z,10.63
2023-05-13T01:43:16.568Z,10.62
2023-05-13T01:44:18.275Z,10.62
2023-05-13T01:45:20.012Z,10.62
2023-05-13T01:46:21.755Z,10.61
2023-05-13T01:47:23.541Z,10.6
2023-05-13T01:48:25.211Z,10.6
2023-05-13T01:49:26.949Z,10.59
2023-05-13T01:50:28.703Z,10.58
2023-05-13T01:51:30.410Z,10.58
2023-05-13T01:52:32.161Z,10.57
2023-05-13T01:53:33.904Z,10.57
2023-05-13T01:54:35.621Z,10.56
2023-05-13T01:55:37.355Z,10.56
2023-05-13T01:56:39.080Z,10.56
2023-05-13T01:57:40.831Z,10.56
2023-05-13T01:58:42.552Z,10.56
2023-05-13T01:59:44.281Z,10.57
2023-05-13T02:00:46.019Z,10.57
2023-05-13T02:01:47.810Z,10.56
2023-05-13T02:02:49.627Z,10.56
2023-05-13T02:03:51.282Z,10.56
2023-05-13T02:04:52.958Z,10.56
2023-05-13T02:05:54.684Z,10.55
2023-05-13T02:06:56.440Z,10.55
2023-05-13T02:07:58.166Z,10.55
2023-05-13T02:08:59.893Z,10.54
2023-05-13T02:10:01.718Z,10.54
2023-05-13T02:11:03.389Z,10.54
2023-05-13T02:12:05.105Z,10.54
2023-05-13T02:13:06.848Z,10.54
2023-05-13T02:14:08.567Z,10.54
2023-05-13T02:15:10.314Z,10.54
2023-05-13T02:16:12.193Z,10.53
2023-05-13T02:17:13.778Z,10.54
2023-05-13T02:18:15.519Z,10.55
2023-05-13T02:19:17.321Z,10.56
2023-05-13T02:20:19.264Z,10.57
2023-05-13T02:21:20.728Z,10.58
2023-05-13T02:22:22.457Z,10.6
2023-05-13T02:23:24.215Z,10.61
2023-05-13T02:24:25.914Z,10.63
2023-05-13T02:25:27.654Z,10.65
2023-05-13T02:26:29.395Z,10.67
2023-05-13T02:27:31.147Z,10.68
2023-05-13T02:28:32.867Z,10.69
2023-05-13T02:29:34.597Z,10.69
2023-05-13T02:30:36.432Z,10.7
2023-05-13T02:31:38.105Z,10.71
2023-05-13T02:32:39.829Z,10.71
2023-05-13T02:33:41.534Z,10.71
2023-05-13T02:34:43.263Z,10.71
2023-05-13T02:35:45.009Z,10.71
2023-05-13T02:36:46.722Z,10.71
2023-05-13T02:37:48.508Z,10.71
2023-05-13T02:38:50.218Z,10.71
2023-05-13T02:39:51.937Z,10.72
2023-05-13T02:40:53.677Z,10.73
2023-05-13T02:41:55.408Z,10.74
2023-05-13T02:42:57.155Z,10.75
2023-05-13T02:43:58.885Z,10.75
2023-05-13T02:45:00.597Z,10.77
2023-05-13T02:46:02.347Z,10.78
2023-05-13T02:47:04.112Z,10.79
2023-05-13T02:48:05.857Z,10.79
2023-05-13T02:49:07.536Z,10.8
2023-05-13T02:50:09.255Z,10.81
2023-05-13T02:51:11.008Z,10.8
2023-05-13T02:52:12.820Z,10.8
2023-05-13T02:53:14.552Z,10.81
2023-05-13T02:54:16.216Z,10.8
2023-05-13T02:55:17.968Z,10.81
2023-05-13T02:56:19.662Z,10.8
2023-05-13T02:57:21.423Z,10.8
2023-05-13T02:58:23.146Z,10.8
2023-05-13T02:59:24.897Z,10.81
2023-05-13T03:00:26.606Z,10.81
2023-05-13T03:01:28.637Z,10.81
2023-05-13T03:02:30.162Z,10.81
2023-05-13T03:03:31.934Z,10.82
2023-05-13T03:04:33.548Z,10.82
2023-05-13T03:05:35.286Z,10.82
2023-05-13T03:06:37.035Z,10.83
2023-05-13T03:07:38.759Z,10.83
2023-05-13T03:08:40.481Z,10.83
2023-05-13T03:09:42.261Z,10.83
2023-05-13T03:10:43.964Z,10.83
2023-05-13T03:11:45.684Z,10.82
2023-05-13T03:12:47.427Z,10.82
2023-05-13T03:13:49.141Z,10.82
2023-05-13T03:14:51.003Z,10.8
2023-05-13T03:15:52.700Z,10.8
2023-05-13T03:16:54.351Z,10.79
2023-05-13T03:17:56.418Z,10.78
2023-05-13T03:18:57.888Z,10.77
2023-05-13T03:19:59.550Z,10.75
2023-05-13T03:21:01.306Z,10.74
2023-05-13T03:22:03.068Z,10.73
2023-05-13T03:23:04.741Z,10.71
2023-05-13T03:24:06.522Z,10.71
2023-05-13T03:25:08.228Z,10.68
2023-05-13T03:26:09.958Z,10.68
2023-05-13T03:27:11.693Z,10.66
2023-05-13T03:28:13.433Z,10.65
2023-05-13T03:29:15.177Z,10.64
2023-05-13T03:30:16.904Z,10.63
2023-05-13T03:31:18.679Z,10.62
2023-05-13T03:32:20.458Z,10.62
2023-05-13T03:33:22.165Z,10.62
2023-05-13T03:34:23.826Z,10.62
2023-05-13T03:35:25.548Z,10.63
2023-05-13T03:36:27.296Z,10.63
2023-05-13T03:37:29.027Z,10.63
2023-05-13T03:38:30.756Z,10.63
2023-05-13T03:39:32.527Z,10.65
2023-05-13T03:40:34.229Z,10.65
2023-05-13T03:41:35.968Z,10.66
2023-05-13T03:42:37.727Z,10.66
2023-05-13T03:43:39.459Z,10.67
2023-05-13T03:44:41.174Z,10.67
2023-05-13T03:45:42.921Z,10.67
2023-05-13T03:46:44.689Z,10.66
2023-05-13T03:47:46.436Z,10.66
2023-05-13T03:48:48.119Z,10.66
2023-05-13T03:49:49.850Z,10.65
2023-05-13T03:50:51.600Z,10.65
2023-05-13T03:51:53.440Z,10.66
2023-05-13T03:52:55.064Z,10.67
2023-05-13T03:53:56.777Z,10.67
2023-05-13T03:54:58.516Z,10.67
2023-05-13T03:56:00.244Z,10.67
2023-05-13T03:57:02.005Z,10.67
2023-05-13T03:58:03.727Z,10.67
2023-05-13T03:59:05.463Z,10.65
2023-05-13T04:00:07.222Z,10.64
2023-05-13T04:01:08.921Z,10.63
2023-05-13T04:02:10.733Z,10.61
2023-05-13T04:03:12.446Z,10.59
2023-05-13T04:04:14.131Z,10.58
2023-05-13T04:05:15.970Z,10.56
2023-05-13T04:06:17.594Z,10.53
2023-05-13T04:07:19.353Z,10.52
2023-05-13T04:08:21.155Z,10.5
2023-05-13T04:09:22.794Z,10.49
2023-05-13T04:10:24.558Z,10.47
2023-05-13T04:11:26.267Z,10.45
2023-05-13T04:12:28.012Z,10.44
2023-05-13T04:13:29.766Z,10.41
2023-05-13T04:14:31.461Z,10.4
2023-05-13T04:15:33.208Z,10.38
2023-05-13T04:16:35.013Z,10.36
2023-05-13T04:17:36.734Z,10.35
2023-05-13T04:18:38.461Z,10.34
2023-05-13T04:19:40.168Z,10.33
2023-05-13T04:20:41.901Z,10.32
2023-05-13T04:21:43.626Z,10.31
2023-05-13T04:22:45.375Z,10.3
2023-05-13T04:23:47.086Z,10.29
2023-05-13T04:24:48.843Z,10.29
2023-05-13T04:25:50.535Z,10.28
2023-05-13T04:26:52.279Z,10.28
2023-05-13T04:27:54.032Z,10.28
2023-05-13T04:28:55.804Z,10.28
2023-05-13T04:29:57.525Z,10.29
2023-05-13T04:30:59.230Z,10.29
2023-05-13T04:32:01.030Z,10.3
2023-05-13T04:33:02.738Z,10.3
2023-05-13T04:34:04.432Z,10.28
2023-05-13T04:35:06.147Z,10.28
2023-05-13T04:36:07.887Z,10.28
2023-05-13T04:37:09.637Z,10.27
2023-05-13T04:38:11.357Z,10.26
2023-05-13T04:39:13.112Z,10.26
2023-05-13T04:40:14.833Z,10.25
2023-05-13T04:41:16.567Z,10.25
2023-05-13T04:42:18.296Z,10.25
2023-05-13T04:43:20.034Z,10.24
2023-05-13T04:44:21.773Z,10.24
2023-05-13T04:45:23.493Z,10.24
2023-05-13T04:46:25.297Z,10.24
2023-05-13T04:47:26.989Z,10.23
2023-05-13T04:48:28.717Z,10.24
2023-05-13T04:49:30.418Z,10.24
2023-05-13T04:50:32.176Z,10.23
2023-05-13T04:51:33.901Z,10.24
2023-05-13T04:52:35.631Z,10.22
2023-05-13T04:53:37.388Z,10.22
2023-05-13T04:54:39.096Z,10.23
2023-05-13T04:55:40.917Z,10.22
2023-05-13T04:56:42.555Z,10.23
2023-05-13T04:57:44.287Z,10.23
2023-05-13T04:58:46.041Z,10.24
2023-05-13T04:59:47.802Z,10.24
2023-05-13T05:00:49.511Z,10.24
2023-05-13T05:01:51.271Z,10.25
2023-05-13T05:02:53.037Z,10.25
2023-05-13T05:03:54.800Z,10.27
2023-05-13T05:04:56.430Z,10.27
2023-05-13T05:05:58.175Z,10.28
2023-05-13T05:06:59.905Z,10.28
2023-05-13T05:08:01.675Z,10.3
2023-05-13T05:09:03.386Z,10.31
2023-05-13T05:10:05.115Z,10.31
2023-05-13T05:11:06.847Z,10.32
2023-05-13T05:12:08.586Z,10.33
2023-05-13T05:13:10.320Z,10.34
2023-05-13T05:14:12.038Z,10.36
2023-05-13T05:15:13.778Z,10.37
2023-05-13T05:16:15.522Z,10.39
2023-05-13T05:17:17.301Z,10.4
2023-05-13T05:18:19.058Z,10.41
2023-05-13T05:19:20.765Z,10.43
2023-05-13T05:20:22.758Z,10.43
2023-05-13T05:21:24.190Z,10.45
2023-05-13T05:22:25.920Z,10.46
2023-05-13T05:23:28.882Z,10.47
2023-05-13T05:24:29.364Z,10.49
2023-05-13T05:25:31.289Z,10.5
2023-05-13T05:26:32.856Z,10.51
2023-05-13T05:27:38.965Z,10.53
2023-05-13T05:28:41.499Z,10.54
2023-05-13T05:29:44.755Z,10.57
2023-05-13T05:30:46.093Z,10.6
2023-05-13T05:31:46.724Z,10.63
2023-05-13T05:32:48.441Z,10.66
2023-05-13T05:33:50.109Z,10.69
2023-05-13T05:34:51.871Z,10.73
2023-05-13T05:35:53.586Z,10.79
2023-05-13T05:36:55.356Z,10.83
2023-05-13T05:37:57.058Z,10.88
2023-05-13T05:38:58.773Z,10.93
2023-05-13T05:40:00.507Z,10.98
2023-05-13T05:41:02.246Z,11.03
2023-05-13T05:42:04.025Z,11.09
2023-05-13T05:43:05.728Z,11.15
2023-05-13T05:44:07.616Z,11.21
2023-05-13T05:45:09.199Z,11.29
2023-05-13T05:46:10.996Z,11.38
2023-05-13T05:47:12.676Z,11.46
2023-05-13T05:48:14.414Z,11.56
2023-05-13T05:49:16.124Z,11.62
2023-05-13T05:50:17.897Z,11.69
2023-05-13T05:51:19.601Z,11.75
2023-05-13T05:52:21.332Z,11.83
2023-05-13T05:53:23.066Z,11.89
2023-05-13T05:54:24.820Z,11.95
2023-05-13T05:55:26.514Z,12.01
2023-05-13T05:56:28.289Z,12.06
2023-05-13T05:57:30.018Z,12.15
2023-05-13T05:58:31.729Z,12.24
2023-05-13T05:59:33.460Z,12.33
2023-05-13T06:00:35.226Z,12.43
2023-05-13T06:01:36.994Z,12.5
2023-05-13T06:02:38.831Z,12.56
2023-05-13T06:03:40.523Z,12.62
2023-05-13T06:04:42.373Z,12.69
2023-05-13T06:05:43.878Z,12.76
2023-05-13T06:06:45.700Z,12.81
2023-05-13T06:07:47.330Z,12.85
2023-05-13T06:08:49.100Z,12.89
2023-05-13T06:09:50.818Z,12.93
2023-05-13T06:10:52.556Z,12.96
2023-05-13T06:11:54.264Z,12.99
2023-05-13T06:12:56.018Z,13.02
2023-05-13T06:13:57.738Z,13.05
2023-05-13T06:14:59.477Z,13.08
2023-05-13T06:16:01.264Z,13.13
2023-05-13T06:17:02.957Z,13.15
2023-05-13T06:18:04.742Z,13.19
2023-05-13T06:19:06.454Z,13.31
2023-05-13T06:20:08.149Z,13.38
2023-05-13T06:21:09.873Z,13.52
2023-05-13T06:22:11.617Z,13.53
2023-05-13T06:23:13.361Z,13.59
2023-05-13T06:24:15.209Z,13.64
2023-05-13T06:25:16.825Z,13.69
2023-05-13T06:26:18.544Z,13.74
2023-05-13T06:27:20.282Z,13.77
2023-05-13T06:28:22.057Z,13.81
2023-05-13T06:29:23.760Z,13.89
2023-05-13T06:30:25.466Z,13.88
2023-05-13T06:31:27.356Z,13.95
2023-05-13T06:32:28.973Z,13.96
2023-05-13T06:33:30.768Z,13.97
2023-05-13T06:34:32.425Z,13.98
2023-05-13T06:35:34.150Z,14
2023-05-13T06:36:35.896Z,14.03
2023-05-13T06:37:37.625Z,14.06
2023-05-13T06:38:39.366Z,14.07
2023-05-13T06:39:41.106Z,14.08
2023-05-13T06:40:42.822Z,14.09
2023-05-13T06:41:44.551Z,14.14
2023-05-13T06:42:46.291Z,14.16
2023-05-13T06:43:48.045Z,14.22
2023-05-13T06:44:49.756Z,14.23
2023-05-13T06:45:51.502Z,14.24
2023-05-13T06:46:53.268Z,14.27
2023-05-13T06:47:55.002Z,14.3
2023-05-13T06:48:56.803Z,14.34
2023-05-13T06:49:58.459Z,14.35
2023-05-13T06:51:00.182Z,14.37
2023-05-13T06:52:01.919Z,14.4
2023-05-13T06:53:03.644Z,14.42
2023-05-13T06:54:05.378Z,14.42
2023-05-13T06:55:07.121Z,14.42
2023-05-13T06:56:08.854Z,14.44
2023-05-13T06:57:10.580Z,14.45
2023-05-13T06:58:12.516Z,14.48
2023-05-13T06:59:14.051Z,14.57
2023-05-13T07:00:15.794Z,14.64
2023-05-13T07:01:17.606Z,14.64
2023-05-13T07:02:19.245Z,14.67
2023-05-13T07:03:21.039Z,14.7
2023-05-13T07:04:22.696Z,14.73
2023-05-13T07:05:24.447Z,14.81
2023-05-13T07:06:26.185Z,14.82
2023-05-13T07:07:27.934Z,14.85
2023-05-13T07:08:29.648Z,14.88
2023-05-13T07:09:31.497Z,14.9
2023-05-13T07:10:33.113Z,14.95
2023-05-13T07:11:34.834Z,15
2023-05-13T07:12:36.577Z,15.04
2023-05-13T07:13:39.215Z,15.07
2023-05-13T07:14:40.035Z,15.1
2023-05-13T07:15:41.763Z,15.14
2023-05-13T07:16:43.518Z,15.16
2023-05-13T07:17:45.449Z,15.2
2023-05-13T07:18:47.010Z,15.23
2023-05-13T07:19:48.701Z,15.25
2023-05-13T07:20:50.462Z,15.27
2023-05-13T07:21:52.295Z,15.31
2023-05-13T07:22:53.960Z,15.37
2023-05-13T07:23:55.682Z,15.39
2023-05-13T07:24:57.376Z,15.44
2023-05-13T07:25:59.123Z,15.51
2023-05-13T07:27:00.861Z,15.53
2023-05-13T07:28:02.585Z,15.57
2023-05-13T07:29:04.343Z,15.6
2023-05-13T07:30:06.054Z,15.66
2023-05-13T07:31:07.813Z,15.72
2023-05-13T07:32:09.502Z,15.78
2023-05-13T07:33:11.288Z,15.86
2023-05-13T07:34:13.039Z,15.92
2023-05-13T07:35:14.726Z,16.03
2023-05-13T07:36:16.469Z,16.1
2023-05-13T07:37:18.187Z,16.2
2023-05-13T07:38:19.943Z,16.29
2023-05-13T07:39:21.686Z,16.36
2023-05-13T07:40:23.553Z,16.42
2023-05-13T07:41:25.147Z,16.47
2023-05-13T07:42:26.854Z,16.52
2023-05-13T07:43:28.595Z,16.57
2023-05-13T07:44:30.320Z,16.6
2023-05-13T07:45:32.053Z,16.64
2023-05-13T07:46:33.823Z,16.67
2023-05-13T07:47:35.573Z,16.69
2023-05-13T07:48:37.314Z,16.68
2023-05-13T07:49:38.991Z,16.72
2023-05-13T07:50:40.735Z,16.74
2023-05-13T07:51:42.446Z,16.74
2023-05-13T07:52:44.228Z,16.78
2023-05-13T07:53:45.935Z,16.79
2023-05-13T07:54:47.670Z,16.83
2023-05-13T07:55:49.402Z,16.87
2023-05-13T07:56:51.147Z,16.9
2023-05-13T07:57:52.875Z,16.85
2023-05-13T07:58:54.596Z,16.84
2023-05-13T07:59:56.346Z,16.91
2023-05-13T08:00:58.083Z,16.97
2023-05-13T08:01:59.814Z,16.93
2023-05-13T08:03:01.785Z,16.89
2023-05-13T08:04:02.143Z,16.89
2023-05-13T08:10:18.742Z,16.63
2023-05-13T08:11:23.090Z,16.56
2023-05-13T08:13:09.806Z,16.47
2023-05-13T08:18:10.792Z,16.28
2023-05-13T08:19:32.862Z,16.25
2023-05-13T08:20:33.404Z,16.25
2023-05-13T08:21:41.428Z,16.23
2023-05-13T08:26:25.704Z,16.43
2023-05-13T08:27:27.358Z,16.5
2023-05-13T08:28:29.105Z,16.56
2023-05-13T08:29:30.821Z,16.65
2023-05-13T08:30:32.557Z,16.75
2023-05-13T08:31:34.367Z,16.84
2023-05-13T08:32:36.072Z,16.93
2023-05-13T08:33:37.784Z,17.05
2023-05-13T08:34:39.510Z,17.14
2023-05-13T08:35:42.915Z,17.24
2023-05-13T08:36:42.985Z,17.34
2023-05-13T08:37:44.754Z,17.45
2023-05-13T08:38:46.471Z,17.53
2023-05-13T08:39:48.171Z,17.62
2023-05-13T08:40:49.925Z,17.72
2023-05-13T08:41:51.648Z,17.81
2023-05-13T08:42:53.378Z,17.9
2023-05-13T08:43:55.137Z,18
2023-05-13T08:44:56.840Z,18.06
2023-05-13T08:45:58.597Z,18.14
2023-05-13T08:47:00.303Z,18.2
2023-05-13T08:48:02.130Z,18.26
2023-05-13T08:49:03.796Z,18.35
2023-05-13T08:50:05.513Z,18.44
2023-05-13T08:51:07.261Z,18.48
2023-05-13T08:52:08.995Z,18.52
2023-05-13T08:53:10.705Z,18.57
2023-05-13T08:54:12.470Z,18.61
2023-05-13T08:55:14.195Z,18.59
2023-05-13T08:56:15.959Z,18.61
2023-05-13T08:57:17.665Z,18.59
2023-05-13T08:58:19.401Z,18.56
2023-05-13T08:59:21.121Z,18.56
2023-05-13T09:00:22.950Z,18.55
2023-05-13T09:01:24.619Z,18.54
2023-05-13T09:02:26.344Z,18.51
2023-05-13T09:03:28.056Z,18.46
2023-05-13T09:04:29.837Z,18.4
2023-05-13T09:05:31.704Z,18.41
2023-05-13T09:06:33.255Z,18.38
2023-05-13T09:07:35.016Z,18.34
2023-05-13T09:08:36.728Z,18.3
2023-05-13T09:09:38.488Z,18.21
2023-05-13T09:10:40.203Z,18.19
2023-05-13T09:11:44.550Z,18.17
2023-05-13T09:12:43.672Z,18.18
2023-05-13T09:13:45.416Z,18.14
2023-05-13T09:14:47.128Z,18.12
2023-05-13T09:15:48.954Z,18.13
2023-05-13T09:16:50.620Z,18.13
2023-05-13T09:17:52.535Z,18.15
2023-05-13T09:18:54.132Z,18.16
2023-05-13T09:19:55.838Z,18.19
2023-05-13T09:20:57.546Z,18.22
2023-05-13T09:21:59.512Z,18.23
2023-05-13T09:23:01.071Z,18.26
2023-05-13T09:24:02.752Z,18.28
2023-05-13T09:25:04.520Z,18.27
2023-05-13T09:26:06.235Z,18.3
2023-05-13T09:27:07.948Z,18.33
2023-05-13T09:28:09.678Z,18.31
2023-05-13T09:29:11.419Z,18.3
2023-05-13T09:30:13.162Z,18.31
2023-05-13T09:31:14.957Z,18.33
2023-05-13T09:32:16.624Z,18.4
2023-05-13T09:33:18.365Z,18.45
2023-05-13T09:34:20.105Z,18.58
2023-05-13T09:35:21.991Z,18.71
2023-05-13T09:36:23.588Z,18.83
2023-05-13T09:37:25.292Z,18.94
2023-05-13T09:38:27.028Z,19.08
2023-05-13T09:39:28.751Z,19.17
2023-05-13T09:40:30.481Z,19.31
2023-05-13T09:41:32.209Z,19.42
2023-05-13T09:42:33.954Z,19.43
2023-05-13T09:43:40.721Z,19.49
2023-05-13T09:44:37.409Z,19.51
2023-05-13T09:45:57.682Z,19.62
2023-05-13T09:47:45.415Z,19.74
2023-05-13T09:48:47.129Z,19.76
2023-05-13T09:49:48.846Z,19.81
2023-05-13T09:50:50.586Z,19.79
2023-05-13T09:51:52.345Z,19.79
2023-05-13T09:52:54.031Z,19.89
2023-05-13T09:53:55.798Z,19.96
2023-05-13T09:54:57.497Z,20.02
2023-05-13T09:55:59.264Z,20.09
2023-05-13T09:57:00.987Z,20.13
2023-05-13T09:58:02.717Z,20.2
2023-05-13T09:59:04.509Z,20.26
2023-05-13T10:00:06.225Z,20.35
2023-05-13T10:01:07.942Z,20.41
2023-05-13T10:02:09.655Z,20.47
2023-05-13T10:03:11.425Z,20.48
2023-05-13T10:04:13.211Z,20.53
2023-05-13T10:05:14.873Z,20.59
2023-05-13T10:06:16.591Z,20.62
2023-05-13T10:07:18.335Z,20.63
2023-05-13T10:08:20.055Z,20.62
2023-05-13T10:09:21.798Z,20.61
2023-05-13T10:10:23.693Z,20.62
2023-05-13T10:11:25.230Z,20.6
2023-05-13T10:12:26.976Z,20.65
2023-05-13T10:13:28.736Z,20.68
2023-05-13T10:14:30.461Z,20.71
2023-05-13T10:15:32.208Z,20.75
2023-05-13T10:16:33.959Z,20.79
2023-05-13T10:17:35.658Z,20.82
2023-05-13T10:18:37.522Z,20.85
2023-05-13T10:19:39.144Z,20.89
2023-05-13T10:20:40.852Z,20.91
2023-05-13T10:21:42.585Z,20.92
2023-05-13T10:22:44.310Z,20.95
2023-05-13T10:23:46.081Z,20.91
2023-05-13T10:24:47.798Z,20.95
2023-05-13T10:25:49.620Z,20.95
2023-05-13T10:26:51.245Z,20.99
2023-05-13T10:27:52.974Z,21.03
2023-05-13T10:28:54.788Z,20.99
2023-05-13T10:29:56.455Z,21.03
2023-05-13T10:30:58.179Z,21.06
2023-05-13T10:32:00.010Z,21.1
2023-05-13T10:33:01.726Z,21.11
2023-05-13T10:34:03.393Z,21.08
2023-05-13T10:35:05.148Z,21.02
2023-05-13T10:36:06.869Z,21.02
2023-05-13T10:37:08.594Z,21.09
2023-05-13T10:38:10.325Z,21.02
2023-05-13T10:39:12.099Z,21.05
2023-05-13T10:40:13.794Z,21.08
2023-05-13T10:41:15.523Z,21.05
2023-05-13T10:42:17.268Z,21.05
2023-05-13T10:43:18.993Z,21.01
2023-05-13T10:44:20.754Z,21.03
2023-05-13T10:45:22.468Z,21.06
2023-05-13T10:46:24.204Z,21.08
2023-05-13T10:47:25.955Z,21.05
2023-05-13T10:48:27.760Z,21.04
2023-05-13T10:49:29.491Z,21.04
2023-05-13T10:50:31.143Z,21.1
2023-05-13T10:51:32.870Z,21.1
2023-05-13T10:52:34.597Z,21.15
2023-05-13T10:53:36.356Z,21.13
2023-05-13T10:54:38.096Z,21.14
2023-05-13T10:55:39.805Z,21.19
2023-05-13T10:56:41.549Z,21.2
2023-05-13T10:57:43.273Z,21.19
2023-05-13T10:58:45.040Z,21.26
2023-05-13T10:59:46.744Z,21.3
2023-05-13T11:00:48.465Z,21.19
2023-05-13T11:01:50.273Z,21.25
2023-05-13T11:02:52.057Z,21.27
2023-05-13T11:03:54.070Z,21.32
2023-05-13T11:04:55.435Z,21.36
2023-05-13T11:05:57.142Z,21.42
2023-05-13T11:06:58.870Z,21.46
2023-05-13T11:08:00.606Z,21.52
2023-05-13T11:09:02.359Z,21.57
2023-05-13T11:10:04.123Z,21.59
2023-05-13T11:11:05.863Z,21.6
2023-05-13T11:12:07.545Z,21.62
2023-05-13T11:13:09.304Z,21.65
2023-05-13T11:14:11.050Z,21.62
2023-05-13T11:15:12.780Z,21.64
2023-05-13T11:16:14.590Z,21.66
2023-05-13T11:17:16.232Z,21.68
2023-05-13T11:18:17.979Z,21.69
2023-05-13T11:19:19.730Z,21.7
2023-05-13T11:20:21.675Z,21.71
2023-05-13T11:21:23.187Z,21.72
2023-05-13T11:22:24.920Z,21.74
2023-05-13T11:23:26.619Z,21.82
2023-05-13T11:24:28.403Z,21.82
2023-05-13T11:25:30.104Z,21.82
2023-05-13T11:26:31.844Z,21.88
2023-05-13T11:27:33.559Z,21.93
2023-05-13T11:28:35.323Z,21.98
2023-05-13T11:29:37.072Z,21.95
2023-05-13T11:30:38.945Z,21.89
2023-05-13T11:31:40.520Z,21.86
2023-05-13T11:32:42.253Z,21.89
2023-05-13T11:33:43.978Z,21.93
2023-05-13T11:34:45.704Z,21.96
2023-05-13T11:35:47.456Z,22
2023-05-13T11:36:49.169Z,22.08
2023-05-13T11:37:50.909Z,22.16
2023-05-13T11:38:52.651Z,22.26
2023-05-13T11:39:54.381Z,22.34
2023-05-13T11:40:56.134Z,22.34
2023-05-13T11:41:57.842Z,22.31
2023-05-13T11:42:59.598Z,22.38
2023-05-13T11:44:01.324Z,22.29
2023-05-13T11:45:03.062Z,22.24
2023-05-13T11:46:04.892Z,22.2
2023-05-13T11:47:06.506Z,22.14
2023-05-13T11:48:08.294Z,22.05
2023-05-13T11:49:09.987Z,21.94
2023-05-13T11:50:11.759Z,21.92
2023-05-13T11:51:13.483Z,21.8
2023-05-13T11:52:15.235Z,21.7
2023-05-13T11:53:16.916Z,21.56
2023-05-13T11:54:18.653Z,21.47
2023-05-13T11:55:20.665Z,21.39
2023-05-13T11:56:22.113Z,21.32
2023-05-13T11:57:23.910Z,21.22
2023-05-13T11:58:25.623Z,21.12
2023-05-13T11:59:29.459Z,21.04
2023-05-13T12:00:29.057Z,20.99
2023-05-13T12:01:30.798Z,20.95
2023-05-13T12:02:32.564Z,20.9
2023-05-13T12:03:34.297Z,20.85
2023-05-13T12:04:36.071Z,20.8
2023-05-13T12:05:37.976Z,20.77
2023-05-13T12:06:39.474Z,20.74
2023-05-13T12:07:41.208Z,20.69
2023-05-13T12:09:44.669Z,20.58
2023-05-13T12:10:46.467Z,20.55
2023-05-13T12:11:48.140Z,20.52
2023-05-13T12:12:49.862Z,20.48
2023-05-13T12:13:51.617Z,20.45
2023-05-13T12:14:53.327Z,20.46
2023-05-13T12:15:55.095Z,20.44
2023-05-13T12:16:56.816Z,20.45
2023-05-13T12:17:58.636Z,20.43
2023-05-13T12:19:00.381Z,20.41
2023-05-13T12:20:02.108Z,20.39
2023-05-13T12:21:03.729Z,20.35
2023-05-13T12:22:05.778Z,20.28
2023-05-13T12:23:07.239Z,20.18
2023-05-13T12:24:08.939Z,19.87
2023-05-13T12:25:10.666Z,19.55
2023-05-13T12:26:12.425Z,19.49
2023-05-13T12:27:14.140Z,19.29
2023-05-13T12:28:15.863Z,19.18
2023-05-13T12:29:17.600Z,19.07
2023-05-13T12:30:19.366Z,18.84
2023-05-13T12:31:21.130Z,18.76
2023-05-13T12:32:22.885Z,18.63
2023-05-13T12:33:24.536Z,18.49
2023-05-13T12:34:26.280Z,18.36
2023-05-13T12:35:28.006Z,18.3
2023-05-13T12:36:29.778Z,18.26
2023-05-13T12:37:31.500Z,18.24
2023-05-13T12:38:33.241Z,18.27
2023-05-13T12:39:34.966Z,18.33
2023-05-13T12:40:36.692Z,18.36
2023-05-13T12:41:38.405Z,18.4
2023-05-13T12:42:40.155Z,18.42
2023-05-13T12:43:41.893Z,18.46
2023-05-13T12:44:43.643Z,18.5
2023-05-13T12:45:45.408Z,18.57
2023-05-13T12:46:47.132Z,18.62
2023-05-13T12:47:48.914Z,18.67
2023-05-13T12:48:50.568Z,18.71
2023-05-13T12:49:52.311Z,18.76
2023-05-13T12:50:54.030Z,18.79
2023-05-13T12:51:55.762Z,18.85
2023-05-13T12:52:57.496Z,18.88
2023-05-13T12:53:59.214Z,18.91
2023-05-13T12:55:00.966Z,18.94
2023-05-13T12:56:02.694Z,18.94
2023-05-13T12:57:04.434Z,18.97
2023-05-13T12:58:06.291Z,18.97
2023-05-13T12:59:07.906Z,18.98
2023-05-13T13:00:09.640Z,18.99
2023-05-13T13:01:11.396Z,19
2023-05-13T13:02:13.109Z,19
2023-05-13T13:03:14.896Z,19.02
2023-05-13T13:04:16.983Z,19.02
2023-05-13T13:05:18.325Z,19
2023-05-13T13:06:20.052Z,18.97
2023-05-13T13:07:21.985Z,18.97
2023-05-13T13:08:23.504Z,18.94
2023-05-13T13:09:25.278Z,18.92
2023-05-13T13:10:26.997Z,18.9
2023-05-13T13:11:28.724Z,18.89
2023-05-13T13:12:30.453Z,18.89
2023-05-13T13:13:32.193Z,18.85
2023-05-13T13:14:33.908Z,18.86
2023-05-13T13:15:35.662Z,18.84
2023-05-13T13:16:37.437Z,18.83
2023-05-13T13:17:39.130Z,18.78
2023-05-13T13:18:40.912Z,18.75
2023-05-13T13:19:42.613Z,18.74
2023-05-13T13:20:44.431Z,18.71
2023-05-13T13:21:46.048Z,18.69
2023-05-13T13:22:47.874Z,18.64
2023-05-13T13:23:49.604Z,18.63
2023-05-13T13:24:51.255Z,18.6
2023-05-13T13:25:53.005Z,18.55
2023-05-13T13:26:55.702Z,18.54
2023-05-13T13:27:56.446Z,18.5
2023-05-13T13:28:58.187Z,18.49
2023-05-13T13:29:59.958Z,18.45
2023-05-13T13:31:01.656Z,18.45
2023-05-13T13:32:03.519Z,18.42
2023-05-13T13:33:05.256Z,18.41
2023-05-13T13:34:06.875Z,18.38
2023-05-13T13:35:08.595Z,18.36